sensor_id;sensor_type;location;lat;lon;timestamp;temperature;humidity
23497;DHT22;11925;48.122;11.560;2023-07-24T00:00:01;20.70;99.90
23497;DHT22;11925;48.122;11.560;2023-07-24T00:02:30;20.60;99.90
23497;DHT22;11925;48.122;11.560;2023-07-24T00:04:59;20.60;99.90
23497;DHT22;11925;48.122;11.560;2023-07-24T00:07:27;20.60;99.90
23497;DHT22;11925;48.122;11.560;2023-07-24T00:09:55;20.60;99.90
23497;DHT22;11925;48.122;11.560;2023-07-24T00:12:24;20.70;99.90
23497;DHT22;11925;48.122;11.560;2023-07-24T00:14:53;20.60;99.90
23497;DHT22;11925;48.122;11.560;2023-07-24T00:17:22;20.60;99.90
23497;DHT22;11925;48.122;11.560;2023-07-24T00:19:50;20.60;99.90
23497;DHT22;11925;48.122;11.560;2023-07-24T00:22:19;20.60;99.90
23497;DHT22;11925;48.122;11.560;2023-07-24T00:24:47;20.60;99.90
23497;DHT22;11925;48.122;11.560;2023-07-24T00:27:15;20.60;99.90
23497;DHT22;11925;48.122;11.560;2023-07-24T00:29:45;20.60;99.90
23497;DHT22;11925;48.122;11.560;2023-07-24T00:32:14;20.60;99.90
23497;DHT22;11925;48.122;11.560;2023-07-24T00:34:43;20.60;99.90
23497;DHT22;11925;48.122;11.560;2023-07-24T00:37:11;20.60;99.90
23497;DHT22;11925;48.122;11.560;2023-07-24T00:39:39;20.60;99.90
23497;DHT22;11925;48.122;11.560;2023-07-24T00:42:08;20.60;99.90
23497;DHT22;11925;48.122;11.560;2023-07-24T00:44:36;20.60;99.90
23497;DHT22;11925;48.122;11.560;2023-07-24T00:47:05;20.60;99.90
23497;DHT22;11925;48.122;11.560;2023-07-24T00:49:35;20.60;99.90
23497;DHT22;11925;48.122;11.560;2023-07-24T00:52:04;20.60;99.90
23497;DHT22;11925;48.122;11.560;2023-07-24T00:54:32;20.50;99.90
23497;DHT22;11925;48.122;11.560;2023-07-24T00:57:03;20.50;99.90
23497;DHT22;11925;48.122;11.560;2023-07-24T00:59:32;20.60;99.90
23497;DHT22;11925;48.122;11.560;2023-07-24T01:02:01;20.50;99.90
23497;DHT22;11925;48.122;11.560;2023-07-24T01:04:30;20.50;99.80
23497;DHT22;11925;48.122;11.560;2023-07-24T01:06:59;20.50;99.90
23497;DHT22;11925;48.122;11.560;2023-07-24T01:09:28;20.50;99.70
23497;DHT22;11925;48.122;11.560;2023-07-24T01:11:59;20.50;99.70
23497;DHT22;11925;48.122;11.560;2023-07-24T01:14:37;20.50;99.60
23497;DHT22;11925;48.122;11.560;2023-07-24T01:17:07;20.50;99.60
23497;DHT22;11925;48.122;11.560;2023-07-24T01:19:40;20.50;99.80
23497;DHT22;11925;48.122;11.560;2023-07-24T01:22:15;20.50;99.50
23497;DHT22;11925;48.122;11.560;2023-07-24T01:25:00;20.40;99.40
23497;DHT22;11925;48.122;11.560;2023-07-24T01:27:33;20.50;99.60
23497;DHT22;11925;48.122;11.560;2023-07-24T01:30:02;20.40;99.50
23497;DHT22;11925;48.122;11.560;2023-07-24T01:32:30;20.40;99.50
23497;DHT22;11925;48.122;11.560;2023-07-24T01:34:59;20.50;99.60
23497;DHT22;11925;48.122;11.560;2023-07-24T01:37:29;20.40;99.50
23497;DHT22;11925;48.122;11.560;2023-07-24T01:39:57;20.40;99.70
23497;DHT22;11925;48.122;11.560;2023-07-24T01:42:26;20.40;99.70
23497;DHT22;11925;48.122;11.560;2023-07-24T01:44:57;20.40;99.70
23497;DHT22;11925;48.122;11.560;2023-07-24T01:47:25;20.40;99.80
23497;DHT22;11925;48.122;11.560;2023-07-24T01:49:53;20.40;99.90
23497;DHT22;11925;48.122;11.560;2023-07-24T01:52:22;20.40;99.90
23497;DHT22;11925;48.122;11.560;2023-07-24T01:54:50;20.40;99.90
23497;DHT22;11925;48.122;11.560;2023-07-24T01:57:18;20.40;99.90
23497;DHT22;11925;48.122;11.560;2023-07-24T01:59:47;20.40;99.90
23497;DHT22;11925;48.122;11.560;2023-07-24T02:02:17;20.40;99.90
23497;DHT22;11925;48.122;11.560;2023-07-24T02:04:46;20.40;99.90
23497;DHT22;11925;48.122;11.560;2023-07-24T02:07:14;20.50;99.90
23497;DHT22;11925;48.122;11.560;2023-07-24T02:09:43;20.50;99.90
23497;DHT22;11925;48.122;11.560;2023-07-24T02:12:11;20.50;99.90
23497;DHT22;11925;48.122;11.560;2023-07-24T02:14:39;20.50;99.90
23497;DHT22;11925;48.122;11.560;2023-07-24T02:17:08;20.50;99.90
23497;DHT22;11925;48.122;11.560;2023-07-24T02:19:37;20.50;99.90
23497;DHT22;11925;48.122;11.560;2023-07-24T02:22:06;20.50;99.90
23497;DHT22;11925;48.122;11.560;2023-07-24T02:24:34;20.50;99.90
23497;DHT22;11925;48.122;11.560;2023-07-24T02:27:05;20.50;99.90
23497;DHT22;11925;48.122;11.560;2023-07-24T02:29:33;20.40;99.90
23497;DHT22;11925;48.122;11.560;2023-07-24T02:32:03;20.40;99.90
23497;DHT22;11925;48.122;11.560;2023-07-24T02:34:31;20.40;99.90
23497;DHT22;11925;48.122;11.560;2023-07-24T02:37:01;20.40;99.90
23497;DHT22;11925;48.122;11.560;2023-07-24T02:39:30;20.40;99.90
23497;DHT22;11925;48.122;11.560;2023-07-24T02:41:58;20.40;99.90
23497;DHT22;11925;48.122;11.560;2023-07-24T02:44:26;20.40;99.90
23497;DHT22;11925;48.122;11.560;2023-07-24T02:46:55;20.40;99.90
23497;DHT22;11925;48.122;11.560;2023-07-24T02:49:23;20.40;99.90
23497;DHT22;11925;48.122;11.560;2023-07-24T02:51:51;20.40;99.90
23497;DHT22;11925;48.122;11.560;2023-07-24T02:54:21;20.50;99.90
23497;DHT22;11925;48.122;11.560;2023-07-24T02:56:49;20.50;99.90
23497;DHT22;11925;48.122;11.560;2023-07-24T02:59:18;20.50;99.90
23497;DHT22;11925;48.122;11.560;2023-07-24T03:01:46;20.50;99.90
23497;DHT22;11925;48.122;11.560;2023-07-24T03:04:15;20.50;99.90
23497;DHT22;11925;48.122;11.560;2023-07-24T03:06:43;20.50;99.90
23497;DHT22;11925;48.122;11.560;2023-07-24T03:09:11;20.50;99.90
23497;DHT22;11925;48.122;11.560;2023-07-24T03:11:41;20.50;99.90
23497;DHT22;11925;48.122;11.560;2023-07-24T03:16:38;20.40;99.90
23497;DHT22;11925;48.122;11.560;2023-07-24T03:19:06;20.40;99.90
23497;DHT22;11925;48.122;11.560;2023-07-24T09:17:48;20.60;99.90
23497;DHT22;11925;48.122;11.560;2023-07-24T09:20:17;20.60;99.90
23497;DHT22;11925;48.122;11.560;2023-07-24T09:22:59;20.60;99.90
23497;DHT22;11925;48.122;11.560;2023-07-24T09:25:43;20.60;99.90
23497;DHT22;11925;48.122;11.560;2023-07-24T09:28:13;20.60;99.90
23497;DHT22;11925;48.122;11.560;2023-07-24T09:30:51;20.60;99.90
23497;DHT22;11925;48.122;11.560;2023-07-24T09:33:20;20.60;99.90
23497;DHT22;11925;48.122;11.560;2023-07-24T09:35:57;20.60;99.90
23497;DHT22;11925;48.122;11.560;2023-07-24T09:38:28;20.60;99.90
23497;DHT22;11925;48.122;11.560;2023-07-24T09:40:57;20.60;99.90
23497;DHT22;11925;48.122;11.560;2023-07-24T09:43:27;20.60;99.90
23497;DHT22;11925;48.122;11.560;2023-07-24T09:46:07;20.60;99.90
23497;DHT22;11925;48.122;11.560;2023-07-24T09:48:37;20.60;99.90
23497;DHT22;11925;48.122;11.560;2023-07-24T09:51:11;20.60;99.90
23497;DHT22;11925;48.122;11.560;2023-07-24T09:53:45;20.60;99.90
23497;DHT22;11925;48.122;11.560;2023-07-24T09:56:17;20.60;99.90
23497;DHT22;11925;48.122;11.560;2023-07-24T09:58:58;20.50;99.90
23497;DHT22;11925;48.122;11.560;2023-07-24T10:01:27;20.60;99.90
23497;DHT22;11925;48.122;11.560;2023-07-24T10:03:57;20.50;99.90
23497;DHT22;11925;48.122;11.560;2023-07-24T10:06:27;20.60;99.90
23497;DHT22;11925;48.122;11.560;2023-07-24T10:08:58;20.60;99.90
23497;DHT22;11925;48.122;11.560;2023-07-24T10:11:28;20.60;99.90
23497;DHT22;11925;48.122;11.560;2023-07-24T10:13:57;20.60;99.90
23497;DHT22;11925;48.122;11.560;2023-07-24T10:16:26;20.60;99.90
23497;DHT22;11925;48.122;11.560;2023-07-24T10:18:55;20.60;99.90
23497;DHT22;11925;48.122;11.560;2023-07-24T10:21:27;20.60;99.90
23497;DHT22;11925;48.122;11.560;2023-07-24T10:24:01;20.60;99.90
23497;DHT22;11925;48.122;11.560;2023-07-24T10:26:29;20.50;99.90
23497;DHT22;11925;48.122;11.560;2023-07-24T10:28:58;20.60;99.90
23497;DHT22;11925;48.122;11.560;2023-07-24T10:31:26;20.60;99.90
23497;DHT22;11925;48.122;11.560;2023-07-24T10:33:59;20.60;99.90
23497;DHT22;11925;48.122;11.560;2023-07-24T10:36:34;20.50;99.90
23497;DHT22;11925;48.122;11.560;2023-07-24T10:39:14;20.60;99.90
23497;DHT22;11925;48.122;11.560;2023-07-24T10:41:43;20.60;99.90
23497;DHT22;11925;48.122;11.560;2023-07-24T10:44:12;20.50;99.90
23497;DHT22;11925;48.122;11.560;2023-07-24T10:46:42;20.50;99.90
23497;DHT22;11925;48.122;11.560;2023-07-24T10:49:11;20.60;99.90
23497;DHT22;11925;48.122;11.560;2023-07-24T10:51:39;20.50;99.90
23497;DHT22;11925;48.122;11.560;2023-07-24T10:54:09;20.60;99.90
23497;DHT22;11925;48.122;11.560;2023-07-24T10:56:37;20.60;99.90
23497;DHT22;11925;48.122;11.560;2023-07-24T10:59:06;20.50;99.90
23497;DHT22;11925;48.122;11.560;2023-07-24T11:01:34;20.50;99.90
23497;DHT22;11925;48.122;11.560;2023-07-24T11:04:03;20.50;99.90
23497;DHT22;11925;48.122;11.560;2023-07-24T11:06:31;20.50;99.90
23497;DHT22;11925;48.122;11.560;2023-07-24T11:09:00;20.50;99.90
23497;DHT22;11925;48.122;11.560;2023-07-24T11:11:30;20.50;99.90
23497;DHT22;11925;48.122;11.560;2023-07-24T11:14:01;20.50;99.90
23497;DHT22;11925;48.122;11.560;2023-07-24T11:16:30;20.50;99.90
23497;DHT22;11925;48.122;11.560;2023-07-24T11:19:00;20.50;99.90
23497;DHT22;11925;48.122;11.560;2023-07-24T11:21:29;20.50;99.90
23497;DHT22;11925;48.122;11.560;2023-07-24T11:24:00;20.50;99.90
23497;DHT22;11925;48.122;11.560;2023-07-24T11:26:36;20.50;99.90
23497;DHT22;11925;48.122;11.560;2023-07-24T11:29:11;20.50;99.90
23497;DHT22;11925;48.122;11.560;2023-07-24T11:31:40;20.50;99.90
23497;DHT22;11925;48.122;11.560;2023-07-24T11:34:08;20.50;99.90
23497;DHT22;11925;48.122;11.560;2023-07-24T11:36:37;20.50;99.90
23497;DHT22;11925;48.122;11.560;2023-07-24T11:39:05;20.50;99.90
23497;DHT22;11925;48.122;11.560;2023-07-24T11:41:35;20.40;99.90
23497;DHT22;11925;48.122;11.560;2023-07-24T11:44:03;20.50;99.90
23497;DHT22;11925;48.122;11.560;2023-07-24T11:46:32;20.40;99.90
23497;DHT22;11925;48.122;11.560;2023-07-24T11:49:00;20.40;99.90
23497;DHT22;11925;48.122;11.560;2023-07-24T11:51:29;20.40;99.90
23497;DHT22;11925;48.122;11.560;2023-07-24T11:54:04;20.50;99.90
23497;DHT22;11925;48.122;11.560;2023-07-24T11:56:33;20.50;99.90
23497;DHT22;11925;48.122;11.560;2023-07-24T11:59:10;20.40;99.90
23497;DHT22;11925;48.122;11.560;2023-07-24T12:01:39;20.40;99.90
23497;DHT22;11925;48.122;11.560;2023-07-24T12:04:07;20.40;99.90
23497;DHT22;11925;48.122;11.560;2023-07-24T12:06:38;20.40;99.90
23497;DHT22;11925;48.122;11.560;2023-07-24T12:09:06;20.40;99.90
23497;DHT22;11925;48.122;11.560;2023-07-24T12:11:39;20.50;99.90
23497;DHT22;11925;48.122;11.560;2023-07-24T12:14:13;20.40;99.90
23497;DHT22;11925;48.122;11.560;2023-07-24T12:16:42;20.40;99.90
23497;DHT22;11925;48.122;11.560;2023-07-24T12:19:10;20.40;99.90
23497;DHT22;11925;48.122;11.560;2023-07-24T12:21:39;20.50;99.90
23497;DHT22;11925;48.122;11.560;2023-07-24T12:24:07;20.50;99.90
23497;DHT22;11925;48.122;11.560;2023-07-24T12:26:35;20.50;99.90
23497;DHT22;11925;48.122;11.560;2023-07-24T12:29:04;20.60;99.90
23497;DHT22;11925;48.122;11.560;2023-07-24T12:31:33;20.70;99.90
23497;DHT22;11925;48.122;11.560;2023-07-24T12:34:03;20.70;99.90
23497;DHT22;11925;48.122;11.560;2023-07-24T12:36:31;20.70;99.90
23497;DHT22;11925;48.122;11.560;2023-07-24T12:38:59;20.80;99.90
23497;DHT22;11925;48.122;11.560;2023-07-24T12:41:28;20.80;99.90
23497;DHT22;11925;48.122;11.560;2023-07-24T12:43:57;20.80;99.90
23497;DHT22;11925;48.122;11.560;2023-07-24T12:46:27;20.80;99.90
23497;DHT22;11925;48.122;11.560;2023-07-24T12:48:56;20.80;99.90
23497;DHT22;11925;48.122;11.560;2023-07-24T12:51:25;20.80;99.90
23497;DHT22;11925;48.122;11.560;2023-07-24T12:53:53;20.80;99.90
23497;DHT22;11925;48.122;11.560;2023-07-24T12:56:42;20.80;99.90
23497;DHT22;11925;48.122;11.560;2023-07-24T12:59:10;20.90;99.90
23497;DHT22;11925;48.122;11.560;2023-07-24T13:01:38;20.90;99.90
23497;DHT22;11925;48.122;11.560;2023-07-24T13:04:08;20.80;99.90
23497;DHT22;11925;48.122;11.560;2023-07-24T13:06:37;20.80;99.90
23497;DHT22;11925;48.122;11.560;2023-07-24T13:09:05;20.80;99.90
23497;DHT22;11925;48.122;11.560;2023-07-24T13:11:34;20.80;99.90
23497;DHT22;11925;48.122;11.560;2023-07-24T13:14:02;20.80;99.90
23497;DHT22;11925;48.122;11.560;2023-07-24T13:16:30;20.90;99.90
23497;DHT22;11925;48.122;11.560;2023-07-24T13:18:59;20.80;99.90
23497;DHT22;11925;48.122;11.560;2023-07-24T13:21:29;20.80;99.90
23497;DHT22;11925;48.122;11.560;2023-07-24T13:23:58;20.90;99.90
23497;DHT22;11925;48.122;11.560;2023-07-24T13:26:26;20.80;99.90
23497;DHT22;11925;48.122;11.560;2023-07-24T13:28:58;20.80;99.90
23497;DHT22;11925;48.122;11.560;2023-07-24T13:31:26;20.80;99.90
23497;DHT22;11925;48.122;11.560;2023-07-24T13:33:56;20.80;99.90
23497;DHT22;11925;48.122;11.560;2023-07-24T13:36:24;20.80;99.90
23497;DHT22;11925;48.122;11.560;2023-07-24T13:38:55;20.80;99.90
23497;DHT22;11925;48.122;11.560;2023-07-24T13:41:23;20.90;99.90
23497;DHT22;11925;48.122;11.560;2023-07-24T13:43:51;20.90;99.90
23497;DHT22;11925;48.122;11.560;2023-07-24T13:46:20;20.80;99.90
23497;DHT22;11925;48.122;11.560;2023-07-24T13:48:48;20.80;99.90
23497;DHT22;11925;48.122;11.560;2023-07-24T13:51:16;20.80;99.90
23497;DHT22;11925;48.122;11.560;2023-07-24T13:53:44;20.80;99.90
23497;DHT22;11925;48.122;11.560;2023-07-24T13:56:16;20.80;99.90
23497;DHT22;11925;48.122;11.560;2023-07-24T13:58:45;20.70;99.90
23497;DHT22;11925;48.122;11.560;2023-07-24T14:01:16;20.70;99.90
23497;DHT22;11925;48.122;11.560;2023-07-24T14:03:44;20.80;99.90
23497;DHT22;11925;48.122;11.560;2023-07-24T14:06:13;20.80;99.90
23497;DHT22;11925;48.122;11.560;2023-07-24T14:08:41;20.80;99.90
23497;DHT22;11925;48.122;11.560;2023-07-24T14:11:09;20.80;99.90
23497;DHT22;11925;48.122;11.560;2023-07-24T14:13:39;20.80;99.90
23497;DHT22;11925;48.122;11.560;2023-07-24T14:16:07;20.70;99.90
23497;DHT22;11925;48.122;11.560;2023-07-24T14:18:37;20.80;99.90
23497;DHT22;11925;48.122;11.560;2023-07-24T14:21:05;20.80;99.90
23497;DHT22;11925;48.122;11.560;2023-07-24T14:23:33;20.80;99.90
23497;DHT22;11925;48.122;11.560;2023-07-24T14:26:02;20.80;99.90
23497;DHT22;11925;48.122;11.560;2023-07-24T14:28:30;20.90;99.90
23497;DHT22;11925;48.122;11.560;2023-07-24T14:31:00;20.80;99.90
23497;DHT22;11925;48.122;11.560;2023-07-24T14:33:29;20.80;99.90
23497;DHT22;11925;48.122;11.560;2023-07-24T14:35:57;20.80;99.90
23497;DHT22;11925;48.122;11.560;2023-07-24T14:38:25;20.80;99.90
23497;DHT22;11925;48.122;11.560;2023-07-24T14:40:54;20.80;99.90
23497;DHT22;11925;48.122;11.560;2023-07-24T14:43:22;20.80;99.90
23497;DHT22;11925;48.122;11.560;2023-07-24T14:45:50;20.80;99.90
23497;DHT22;11925;48.122;11.560;2023-07-24T14:48:21;20.80;99.90
23497;DHT22;11925;48.122;11.560;2023-07-24T14:50:49;20.70;99.90
23497;DHT22;11925;48.122;11.560;2023-07-24T14:53:17;20.80;99.90
23497;DHT22;11925;48.122;11.560;2023-07-24T14:55:46;20.80;99.90
23497;DHT22;11925;48.122;11.560;2023-07-24T14:58:14;20.70;99.90
23497;DHT22;11925;48.122;11.560;2023-07-24T15:00:42;20.80;99.90
23497;DHT22;11925;48.122;11.560;2023-07-24T15:03:13;20.70;99.90
23497;DHT22;11925;48.122;11.560;2023-07-24T15:05:43;20.70;99.90
23497;DHT22;11925;48.122;11.560;2023-07-24T15:08:11;20.70;99.90
23497;DHT22;11925;48.122;11.560;2023-07-24T15:10:40;20.70;99.90
23497;DHT22;11925;48.122;11.560;2023-07-24T15:13:09;20.70;99.90
23497;DHT22;11925;48.122;11.560;2023-07-24T15:15:38;20.70;99.90
23497;DHT22;11925;48.122;11.560;2023-07-24T15:18:06;20.70;99.90
23497;DHT22;11925;48.122;11.560;2023-07-24T15:20:35;20.70;99.90
23497;DHT22;11925;48.122;11.560;2023-07-24T15:23:04;20.70;99.90
23497;DHT22;11925;48.122;11.560;2023-07-24T15:25:36;20.70;99.90
23497;DHT22;11925;48.122;11.560;2023-07-24T15:28:04;20.70;99.90
23497;DHT22;11925;48.122;11.560;2023-07-24T15:30:32;20.70;99.90
23497;DHT22;11925;48.122;11.560;2023-07-24T15:33:01;20.70;99.90
23497;DHT22;11925;48.122;11.560;2023-07-24T15:35:29;20.70;99.90
23497;DHT22;11925;48.122;11.560;2023-07-24T15:37:57;20.60;99.90
23497;DHT22;11925;48.122;11.560;2023-07-24T15:40:29;20.60;99.90
23497;DHT22;11925;48.122;11.560;2023-07-24T15:42:58;20.70;99.90
23497;DHT22;11925;48.122;11.560;2023-07-24T15:45:26;20.70;99.90
23497;DHT22;11925;48.122;11.560;2023-07-24T15:47:55;20.70;99.90
23497;DHT22;11925;48.122;11.560;2023-07-24T15:50:23;20.60;99.90
23497;DHT22;11925;48.122;11.560;2023-07-24T15:52:51;20.70;99.90
23497;DHT22;11925;48.122;11.560;2023-07-24T15:55:20;20.70;99.90
23497;DHT22;11925;48.122;11.560;2023-07-24T15:57:50;20.70;99.90
23497;DHT22;11925;48.122;11.560;2023-07-24T16:00:18;20.60;99.90
23497;DHT22;11925;48.122;11.560;2023-07-24T16:02:46;20.60;99.90
23497;DHT22;11925;48.122;11.560;2023-07-24T16:05:16;20.60;99.90
23497;DHT22;11925;48.122;11.560;2023-07-24T16:07:45;20.60;99.90
23497;DHT22;11925;48.122;11.560;2023-07-24T16:10:14;20.60;99.90
23497;DHT22;11925;48.122;11.560;2023-07-24T16:12:43;20.60;99.90
23497;DHT22;11925;48.122;11.560;2023-07-24T16:15:13;20.60;99.90
23497;DHT22;11925;48.122;11.560;2023-07-24T16:17:42;20.60;99.90
23497;DHT22;11925;48.122;11.560;2023-07-24T16:20:13;20.60;99.90
23497;DHT22;11925;48.122;11.560;2023-07-24T16:22:41;20.60;99.90
23497;DHT22;11925;48.122;11.560;2023-07-24T16:25:10;20.70;99.90
23497;DHT22;11925;48.122;11.560;2023-07-24T16:27:38;20.60;99.90
23497;DHT22;11925;48.122;11.560;2023-07-24T16:30:08;20.60;99.90
23497;DHT22;11925;48.122;11.560;2023-07-24T16:32:37;20.70;99.90
23497;DHT22;11925;48.122;11.560;2023-07-24T16:35:15;20.60;99.90
23497;DHT22;11925;48.122;11.560;2023-07-24T16:37:43;20.60;99.90
23497;DHT22;11925;48.122;11.560;2023-07-24T16:40:12;20.60;99.90
23497;DHT22;11925;48.122;11.560;2023-07-24T16:42:40;20.60;99.90
23497;DHT22;11925;48.122;11.560;2023-07-24T16:45:12;20.60;99.90
23497;DHT22;11925;48.122;11.560;2023-07-24T16:48:02;20.60;99.90
23497;DHT22;11925;48.122;11.560;2023-07-24T16:50:31;20.60;99.90
23497;DHT22;11925;48.122;11.560;2023-07-24T16:53:02;20.70;99.90
23497;DHT22;11925;48.122;11.560;2023-07-24T16:55:30;20.70;99.90
23497;DHT22;11925;48.122;11.560;2023-07-24T16:57:59;20.70;99.90
23497;DHT22;11925;48.122;11.560;2023-07-24T17:00:27;20.70;99.90
23497;DHT22;11925;48.122;11.560;2023-07-24T17:02:55;20.70;99.90
23497;DHT22;11925;48.122;11.560;2023-07-24T17:05:25;20.70;99.90
23497;DHT22;11925;48.122;11.560;2023-07-24T17:07:54;20.80;99.90
23497;DHT22;11925;48.122;11.560;2023-07-24T17:10:22;20.80;99.90
23497;DHT22;11925;48.122;11.560;2023-07-24T17:12:50;20.80;99.90
23497;DHT22;11925;48.122;11.560;2023-07-24T17:15:19;20.80;99.90
23497;DHT22;11925;48.122;11.560;2023-07-24T17:17:47;20.70;99.90
23497;DHT22;11925;48.122;11.560;2023-07-24T17:20:15;20.90;99.90
23497;DHT22;11925;48.122;11.560;2023-07-24T17:22:45;21.00;99.90
23497;DHT22;11925;48.122;11.560;2023-07-24T17:25:14;21.00;99.90
23497;DHT22;11925;48.122;11.560;2023-07-24T17:27:44;21.10;99.90
23497;DHT22;11925;48.122;11.560;2023-07-24T17:30:12;21.10;99.90
23497;DHT22;11925;48.122;11.560;2023-07-24T17:32:40;21.10;99.90
23497;DHT22;11925;48.122;11.560;2023-07-24T17:35:09;21.10;99.90
23497;DHT22;11925;48.122;11.560;2023-07-24T17:37:37;21.10;99.90
23497;DHT22;11925;48.122;11.560;2023-07-24T17:40:09;21.10;99.90
23497;DHT22;11925;48.122;11.560;2023-07-24T17:42:38;21.10;99.90
23497;DHT22;11925;48.122;11.560;2023-07-24T17:45:06;21.10;99.90
23497;DHT22;11925;48.122;11.560;2023-07-24T17:47:35;21.10;99.90
23497;DHT22;11925;48.122;11.560;2023-07-24T17:50:03;21.10;99.90
23497;DHT22;11925;48.122;11.560;2023-07-24T17:52:35;21.30;99.90
23497;DHT22;11925;48.122;11.560;2023-07-24T17:55:04;21.30;99.90
23497;DHT22;11925;48.122;11.560;2023-07-24T17:57:34;21.30;99.90
23497;DHT22;11925;48.122;11.560;2023-07-24T18:00:03;21.30;99.90
23497;DHT22;11925;48.122;11.560;2023-07-24T18:02:32;21.30;99.90
23497;DHT22;11925;48.122;11.560;2023-07-24T18:05:01;21.30;99.90
23497;DHT22;11925;48.122;11.560;2023-07-24T18:07:29;21.30;99.90
23497;DHT22;11925;48.122;11.560;2023-07-24T18:09:58;21.30;99.90
23497;DHT22;11925;48.122;11.560;2023-07-24T18:12:27;21.20;99.90
23497;DHT22;11925;48.122;11.560;2023-07-24T18:14:57;21.20;99.90
23497;DHT22;11925;48.122;11.560;2023-07-24T18:17:25;21.20;99.90
23497;DHT22;11925;48.122;11.560;2023-07-24T18:19:53;21.40;99.90
23497;DHT22;11925;48.122;11.560;2023-07-24T18:22:22;21.30;99.90
23497;DHT22;11925;48.122;11.560;2023-07-24T18:24:50;21.30;99.90
23497;DHT22;11925;48.122;11.560;2023-07-24T18:27:19;21.30;99.90
23497;DHT22;11925;48.122;11.560;2023-07-24T18:29:48;21.30;99.90
23497;DHT22;11925;48.122;11.560;2023-07-24T18:32:18;21.30;99.90
23497;DHT22;11925;48.122;11.560;2023-07-24T18:34:46;21.30;99.90
23497;DHT22;11925;48.122;11.560;2023-07-24T18:37:15;21.30;99.90
23497;DHT22;11925;48.122;11.560;2023-07-24T18:39:43;21.30;99.90
23497;DHT22;11925;48.122;11.560;2023-07-24T18:42:12;21.30;99.90
23497;DHT22;11925;48.122;11.560;2023-07-24T18:44:40;21.20;99.90
23497;DHT22;11925;48.122;11.560;2023-07-24T18:47:09;21.20;99.90
23497;DHT22;11925;48.122;11.560;2023-07-24T18:49:39;21.30;99.90
23497;DHT22;11925;48.122;11.560;2023-07-24T18:52:08;21.30;99.90
23497;DHT22;11925;48.122;11.560;2023-07-24T18:54:38;21.20;99.90
23497;DHT22;11925;48.122;11.560;2023-07-24T18:57:07;21.20;99.90
23497;DHT22;11925;48.122;11.560;2023-07-24T18:59:35;21.20;99.90
23497;DHT22;11925;48.122;11.560;2023-07-24T19:02:04;21.40;99.90
23497;DHT22;11925;48.122;11.560;2023-07-24T19:04:32;21.40;99.90
23497;DHT22;11925;48.122;11.560;2023-07-24T19:07:02;21.40;99.90
23497;DHT22;11925;48.122;11.560;2023-07-24T19:09:31;21.40;99.90
23497;DHT22;11925;48.122;11.560;2023-07-24T19:12:00;21.30;99.90
23497;DHT22;11925;48.122;11.560;2023-07-24T19:14:28;21.30;99.90
23497;DHT22;11925;48.122;11.560;2023-07-24T19:16:56;21.20;99.90
23497;DHT22;11925;48.122;11.560;2023-07-24T19:19:24;21.20;99.90
23497;DHT22;11925;48.122;11.560;2023-07-24T19:21:54;21.10;99.90
23497;DHT22;11925;48.122;11.560;2023-07-24T19:24:24;21.10;99.90
23497;DHT22;11925;48.122;11.560;2023-07-24T19:26:52;21.10;99.90
23497;DHT22;11925;48.122;11.560;2023-07-24T19:29:21;21.10;99.90
23497;DHT22;11925;48.122;11.560;2023-07-24T19:31:49;21.00;99.90
23497;DHT22;11925;48.122;11.560;2023-07-24T19:34:18;21.00;99.90
23497;DHT22;11925;48.122;11.560;2023-07-24T19:36:48;21.00;99.90
23497;DHT22;11925;48.122;11.560;2023-07-24T19:39:16;21.00;99.90
23497;DHT22;11925;48.122;11.560;2023-07-24T19:41:46;21.00;99.90
23497;DHT22;11925;48.122;11.560;2023-07-24T19:44:14;21.00;99.90
23497;DHT22;11925;48.122;11.560;2023-07-24T19:46:43;21.00;99.90
23497;DHT22;11925;48.122;11.560;2023-07-24T19:49:11;21.00;99.90
23497;DHT22;11925;48.122;11.560;2023-07-24T19:51:39;21.00;99.90
23497;DHT22;11925;48.122;11.560;2023-07-24T19:54:08;21.00;99.90
23497;DHT22;11925;48.122;11.560;2023-07-24T19:56:36;20.90;99.90
23497;DHT22;11925;48.122;11.560;2023-07-24T19:59:06;20.90;99.90
23497;DHT22;11925;48.122;11.560;2023-07-24T20:01:34;20.90;99.90
23497;DHT22;11925;48.122;11.560;2023-07-24T20:04:02;20.90;99.90
23497;DHT22;11925;48.122;11.560;2023-07-24T20:06:31;20.90;99.90
23497;DHT22;11925;48.122;11.560;2023-07-24T20:09:00;20.90;99.90
23497;DHT22;11925;48.122;11.560;2023-07-24T20:11:28;20.90;99.90
23497;DHT22;11925;48.122;11.560;2023-07-24T20:13:57;20.90;99.90
23497;DHT22;11925;48.122;11.560;2023-07-24T20:16:26;20.90;99.90
23497;DHT22;11925;48.122;11.560;2023-07-24T20:18:55;20.90;99.90
23497;DHT22;11925;48.122;11.560;2023-07-24T20:21:23;20.90;99.90
23497;DHT22;11925;48.122;11.560;2023-07-24T20:23:51;20.90;99.90
23497;DHT22;11925;48.122;11.560;2023-07-24T20:26:20;20.90;99.90
23497;DHT22;11925;48.122;11.560;2023-07-24T20:28:48;20.80;99.90
23497;DHT22;11925;48.122;11.560;2023-07-24T20:31:16;20.80;99.90
23497;DHT22;11925;48.122;11.560;2023-07-24T20:33:46;20.80;99.90
23497;DHT22;11925;48.122;11.560;2023-07-24T20:36:14;20.80;99.90
23497;DHT22;11925;48.122;11.560;2023-07-24T20:38:43;20.90;99.90
23497;DHT22;11925;48.122;11.560;2023-07-24T20:41:11;20.80;99.90
23497;DHT22;11925;48.122;11.560;2023-07-24T20:43:39;20.80;99.90
23497;DHT22;11925;48.122;11.560;2023-07-24T20:46:10;20.80;99.90
23497;DHT22;11925;48.122;11.560;2023-07-24T20:48:39;20.80;99.90
23497;DHT22;11925;48.122;11.560;2023-07-24T20:51:15;20.70;99.90
23497;DHT22;11925;48.122;11.560;2023-07-24T20:53:44;20.80;99.90
23497;DHT22;11925;48.122;11.560;2023-07-24T20:56:12;20.80;99.90
23497;DHT22;11925;48.122;11.560;2023-07-24T20:58:40;20.70;99.90
23497;DHT22;11925;48.122;11.560;2023-07-24T21:01:09;20.70;99.90
23497;DHT22;11925;48.122;11.560;2023-07-24T21:03:37;20.70;99.90
23497;DHT22;11925;48.122;11.560;2023-07-24T21:06:05;20.70;99.90
23497;DHT22;11925;48.122;11.560;2023-07-24T21:08:35;20.70;99.90
23497;DHT22;11925;48.122;11.560;2023-07-24T21:11:03;20.70;99.90
23497;DHT22;11925;48.122;11.560;2023-07-24T21:13:32;20.70;99.90
23497;DHT22;11925;48.122;11.560;2023-07-24T21:16:00;20.60;99.90
23497;DHT22;11925;48.122;11.560;2023-07-24T21:18:28;20.60;99.90
23497;DHT22;11925;48.122;11.560;2023-07-24T21:20:57;20.60;99.90
23497;DHT22;11925;48.122;11.560;2023-07-24T21:23:27;20.60;99.90
23497;DHT22;11925;48.122;11.560;2023-07-24T21:25:57;20.60;99.90